sensor_id;sensor_type;location;lat;lon;timestamp;P1;durP1;ratioP1;P2;durP2;ratioP2
68680;SDS011;55836;49.858;6.756;2023-11-21T00:01:04;8.37;;;5.97;;
68680;SDS011;55836;49.858;6.756;2023-11-21T00:03:30;7.90;;;5.93;;
68680;SDS011;55836;49.858;6.756;2023-11-21T00:05:56;9.00;;;5.30;;
68680;SDS011;55836;49.858;6.756;2023-11-21T00:08:22;9.47;;;4.97;;
68680;SDS011;55836;49.858;6.756;2023-11-21T00:10:48;6.20;;;4.40;;
68680;SDS011;55836;49.858;6.756;2023-11-21T00:13:16;7.73;;;5.47;;
68680;SDS011;55836;49.858;6.756;2023-11-21T00:15:42;9.60;;;4.90;;
68680;SDS011;55836;49.858;6.756;2023-11-21T00:18:09;6.00;;;5.20;;
68680;SDS011;55836;49.858;6.756;2023-11-21T00:20:35;7.10;;;5.30;;
68680;SDS011;55836;49.858;6.756;2023-11-21T00:23:01;9.17;;;5.17;;
68680;SDS011;55836;49.858;6.756;2023-11-21T00:25:27;7.23;;;4.90;;
68680;SDS011;55836;49.858;6.756;2023-11-21T00:27:53;7.00;;;4.90;;
68680;SDS011;55836;49.858;6.756;2023-11-21T00:30:19;4.57;;;4.17;;
68680;SDS011;55836;49.858;6.756;2023-11-21T00:32:47;5.63;;;4.10;;
68680;SDS011;55836;49.858;6.756;2023-11-21T00:35:13;6.10;;;4.50;;
68680;SDS011;55836;49.858;6.756;2023-11-21T00:37:39;5.50;;;4.07;;
68680;SDS011;55836;49.858;6.756;2023-11-21T00:40:05;5.17;;;4.40;;
68680;SDS011;55836;49.858;6.756;2023-11-21T00:42:31;5.27;;;3.43;;
68680;SDS011;55836;49.858;6.756;2023-11-21T00:44:58;4.20;;;3.70;;
68680;SDS011;55836;49.858;6.756;2023-11-21T00:47:24;7.63;;;4.10;;
68680;SDS011;55836;49.858;6.756;2023-11-21T00:49:50;8.20;;;4.07;;
68680;SDS011;55836;49.858;6.756;2023-11-21T00:52:17;5.90;;;3.97;;
68680;SDS011;55836;49.858;6.756;2023-11-21T00:54:43;6.23;;;4.10;;
68680;SDS011;55836;49.858;6.756;2023-11-21T00:57:09;6.83;;;5.50;;
68680;SDS011;55836;49.858;6.756;2023-11-21T00:59:36;6.03;;;5.40;;
68680;SDS011;55836;49.858;6.756;2023-11-21T01:02:02;7.47;;;5.80;;
68680;SDS011;55836;49.858;6.756;2023-11-21T01:04:30;8.70;;;5.93;;
68680;SDS011;55836;49.858;6.756;2023-11-21T01:06:57;7.47;;;4.80;;
68680;SDS011;55836;49.858;6.756;2023-11-21T01:09:23;11.83;;;5.50;;
68680;SDS011;55836;49.858;6.756;2023-11-21T01:11:49;8.07;;;5.60;;
68680;SDS011;55836;49.858;6.756;2023-11-21T01:14:16;6.90;;;5.07;;
68680;SDS011;55836;49.858;6.756;2023-11-21T01:16:43;7.40;;;5.80;;
68680;SDS011;55836;49.858;6.756;2023-11-21T01:19:08;6.47;;;5.43;;
68680;SDS011;55836;49.858;6.756;2023-11-21T01:21:38;10.20;;;6.03;;
68680;SDS011;55836;49.858;6.756;2023-11-21T01:24:04;8.80;;;6.63;;
68680;SDS011;55836;49.858;6.756;2023-11-21T01:26:32;10.33;;;6.63;;
68680;SDS011;55836;49.858;6.756;2023-11-21T01:28:58;9.73;;;7.37;;
68680;SDS011;55836;49.858;6.756;2023-11-21T01:31:24;8.23;;;6.63;;
68680;SDS011;55836;49.858;6.756;2023-11-21T01:33:54;9.10;;;6.90;;
68680;SDS011;55836;49.858;6.756;2023-11-21T01:36:20;9.53;;;7.67;;
68680;SDS011;55836;49.858;6.756;2023-11-21T01:38:46;9.70;;;7.20;;
68680;SDS011;55836;49.858;6.756;2023-11-21T01:41:13;10.17;;;8.57;;
68680;SDS011;55836;49.858;6.756;2023-11-21T01:43:39;10.33;;;8.00;;
68680;SDS011;55836;49.858;6.756;2023-11-21T01:46:05;11.47;;;7.23;;
68680;SDS011;55836;49.858;6.756;2023-11-21T01:48:32;8.50;;;7.00;;
68680;SDS011;55836;49.858;6.756;2023-11-21T01:50:58;10.13;;;6.50;;
68680;SDS011;55836;49.858;6.756;2023-11-21T01:53:24;5.73;;;5.17;;
68680;SDS011;55836;49.858;6.756;2023-11-21T01:55:51;7.20;;;5.00;;
68680;SDS011;55836;49.858;6.756;2023-11-21T01:58:18;6.20;;;3.53;;
68680;SDS011;55836;49.858;6.756;2023-11-21T02:00:45;10.20;;;3.10;;
68680;SDS011;55836;49.858;6.756;2023-11-21T02:03:11;4.10;;;2.53;;
68680;SDS011;55836;49.858;6.756;2023-11-21T02:05:37;8.03;;;2.97;;
68680;SDS011;55836;49.858;6.756;2023-11-21T02:08:03;5.60;;;2.27;;
68680;SDS011;55836;49.858;6.756;2023-11-21T02:10:30;2.97;;;2.03;;
68680;SDS011;55836;49.858;6.756;2023-11-21T02:12:56;3.50;;;1.87;;
68680;SDS011;55836;49.858;6.756;2023-11-21T02:15:23;2.87;;;1.50;;
68680;SDS011;55836;49.858;6.756;2023-11-21T02:17:53;2.50;;;1.83;;
68680;SDS011;55836;49.858;6.756;2023-11-21T02:20:22;2.43;;;1.87;;
68680;SDS011;55836;49.858;6.756;2023-11-21T02:22:50;3.87;;;2.07;;
68680;SDS011;55836;49.858;6.756;2023-11-21T02:25:28;4.90;;;2.00;;
68680;SDS011;55836;49.858;6.756;2023-11-21T02:27:55;3.10;;;2.10;;
68680;SDS011;55836;49.858;6.756;2023-11-21T02:30:21;4.77;;;1.70;;
68680;SDS011;55836;49.858;6.756;2023-11-21T02:32:50;2.77;;;1.83;;
68680;SDS011;55836;49.858;6.756;2023-11-21T02:35:18;2.33;;;2.00;;
68680;SDS011;55836;49.858;6.756;2023-11-21T02:37:46;2.20;;;1.73;;
68680;SDS011;55836;49.858;6.756;2023-11-21T02:40:12;2.53;;;1.43;;
68680;SDS011;55836;49.858;6.756;2023-11-21T02:42:41;2.93;;;1.60;;
68680;SDS011;55836;49.858;6.756;2023-11-21T02:45:07;1.80;;;1.53;;
68680;SDS011;55836;49.858;6.756;2023-11-21T02:47:33;2.80;;;1.93;;
68680;SDS011;55836;49.858;6.756;2023-11-21T02:49:59;1.97;;;1.30;;
68680;SDS011;55836;49.858;6.756;2023-11-21T02:52:25;2.97;;;1.60;;
68680;SDS011;55836;49.858;6.756;2023-11-21T02:54:51;17.63;;;3.87;;
68680;SDS011;55836;49.858;6.756;2023-11-21T02:57:18;4.80;;;1.63;;
68680;SDS011;55836;49.858;6.756;2023-11-21T02:59:44;1.50;;;1.40;;
68680;SDS011;55836;49.858;6.756;2023-11-21T03:02:10;3.90;;;2.13;;
68680;SDS011;55836;49.858;6.756;2023-11-21T03:04:36;3.63;;;2.30;;
68680;SDS011;55836;49.858;6.756;2023-11-21T03:07:02;3.37;;;2.50;;
68680;SDS011;55836;49.858;6.756;2023-11-21T03:09:30;2.77;;;2.03;;
68680;SDS011;55836;49.858;6.756;2023-11-21T03:11:56;2.87;;;2.40;;
68680;SDS011;55836;49.858;6.756;2023-11-21T03:14:22;4.73;;;3.17;;
68680;SDS011;55836;49.858;6.756;2023-11-21T03:16:48;4.27;;;3.40;;
68680;SDS011;55836;49.858;6.756;2023-11-21T03:19:14;5.00;;;3.37;;
68680;SDS011;55836;49.858;6.756;2023-11-21T03:21:40;3.83;;;2.93;;
68680;SDS011;55836;49.858;6.756;2023-11-21T03:24:06;5.07;;;3.03;;
68680;SDS011;55836;49.858;6.756;2023-11-21T03:26:33;5.03;;;3.27;;
68680;SDS011;55836;49.858;6.756;2023-11-21T03:28:59;4.27;;;3.70;;
68680;SDS011;55836;49.858;6.756;2023-11-21T03:31:25;4.27;;;3.53;;
68680;SDS011;55836;49.858;6.756;2023-11-21T03:33:51;5.10;;;3.57;;
68680;SDS011;55836;49.858;6.756;2023-11-21T03:36:19;4.50;;;3.40;;
68680;SDS011;55836;49.858;6.756;2023-11-21T03:38:45;5.23;;;3.40;;
68680;SDS011;55836;49.858;6.756;2023-11-21T03:41:11;5.13;;;3.90;;
68680;SDS011;55836;49.858;6.756;2023-11-21T03:43:37;7.27;;;3.90;;
68680;SDS011;55836;49.858;6.756;2023-11-21T03:46:03;4.67;;;3.50;;
68680;SDS011;55836;49.858;6.756;2023-11-21T03:48:29;6.20;;;3.37;;
68680;SDS011;55836;49.858;6.756;2023-11-21T03:50:55;6.67;;;3.63;;
68680;SDS011;55836;49.858;6.756;2023-11-21T03:53:21;5.00;;;3.33;;
68680;SDS011;55836;49.858;6.756;2023-11-21T03:55:47;6.77;;;3.70;;
68680;SDS011;55836;49.858;6.756;2023-11-21T03:58:14;6.10;;;3.93;;
68680;SDS011;55836;49.858;6.756;2023-11-21T04:00:40;4.80;;;3.70;;
68680;SDS011;55836;49.858;6.756;2023-11-21T04:03:06;6.07;;;3.93;;
68680;SDS011;55836;49.858;6.756;2023-11-21T04:05:32;4.87;;;3.33;;
68680;SDS011;55836;49.858;6.756;2023-11-21T04:07:58;4.43;;;3.40;;
68680;SDS011;55836;49.858;6.756;2023-11-21T04:10:24;5.37;;;4.33;;
68680;SDS011;55836;49.858;6.756;2023-11-21T04:12:50;4.10;;;3.50;;
68680;SDS011;55836;49.858;6.756;2023-11-21T04:15:16;4.53;;;3.83;;
68680;SDS011;55836;49.858;6.756;2023-11-21T04:17:42;6.27;;;3.60;;
68680;SDS011;55836;49.858;6.756;2023-11-21T04:20:08;4.43;;;3.43;;
68680;SDS011;55836;49.858;6.756;2023-11-21T04:22:41;5.90;;;3.63;;
68680;SDS011;55836;49.858;6.756;2023-11-21T04:25:12;5.83;;;4.50;;
68680;SDS011;55836;49.858;6.756;2023-11-21T04:27:39;4.73;;;3.83;;
68680;SDS011;55836;49.858;6.756;2023-11-21T04:30:05;5.07;;;3.73;;
68680;SDS011;55836;49.858;6.756;2023-11-21T04:32:32;5.77;;;3.60;;
68680;SDS011;55836;49.858;6.756;2023-11-21T04:34:58;5.63;;;4.13;;
68680;SDS011;55836;49.858;6.756;2023-11-21T04:37:24;5.40;;;3.87;;
68680;SDS011;55836;49.858;6.756;2023-11-21T04:39:50;6.00;;;3.87;;
68680;SDS011;55836;49.858;6.756;2023-11-21T04:42:16;6.80;;;4.40;;
68680;SDS011;55836;49.858;6.756;2023-11-21T04:44:42;6.03;;;4.33;;
68680;SDS011;55836;49.858;6.756;2023-11-21T04:47:09;6.07;;;4.77;;
68680;SDS011;55836;49.858;6.756;2023-11-21T04:49:35;8.27;;;4.83;;
68680;SDS011;55836;49.858;6.756;2023-11-21T04:52:01;6.57;;;4.57;;
68680;SDS011;55836;49.858;6.756;2023-11-21T04:54:28;7.77;;;4.80;;
68680;SDS011;55836;49.858;6.756;2023-11-21T04:56:55;6.63;;;5.13;;
68680;SDS011;55836;49.858;6.756;2023-11-21T04:59:21;8.93;;;5.27;;
68680;SDS011;55836;49.858;6.756;2023-11-21T05:01:52;6.67;;;4.87;;
68680;SDS011;55836;49.858;6.756;2023-11-21T05:04:18;7.67;;;5.20;;
68680;SDS011;55836;49.858;6.756;2023-11-21T05:06:44;7.27;;;4.77;;
68680;SDS011;55836;49.858;6.756;2023-11-21T05:09:11;8.07;;;5.07;;
68680;SDS011;55836;49.858;6.756;2023-11-21T05:11:37;7.13;;;5.17;;
68680;SDS011;55836;49.858;6.756;2023-11-21T05:14:05;8.33;;;5.23;;
68680;SDS011;55836;49.858;6.756;2023-11-21T05:16:32;6.43;;;4.23;;
68680;SDS011;55836;49.858;6.756;2023-11-21T05:18:59;5.10;;;4.10;;
68680;SDS011;55836;49.858;6.756;2023-11-21T05:21:26;5.83;;;4.00;;
68680;SDS011;55836;49.858;6.756;2023-11-21T05:23:52;6.90;;;4.80;;
68680;SDS011;55836;49.858;6.756;2023-11-21T05:26:18;6.20;;;4.53;;
68680;SDS011;55836;49.858;6.756;2023-11-21T05:28:44;8.53;;;4.10;;
68680;SDS011;55836;49.858;6.756;2023-11-21T05:31:10;7.33;;;4.07;;
68680;SDS011;55836;49.858;6.756;2023-11-21T05:33:36;6.47;;;3.93;;
68680;SDS011;55836;49.858;6.756;2023-11-21T05:36:02;4.13;;;3.73;;
68680;SDS011;55836;49.858;6.756;2023-11-21T05:38:28;7.17;;;4.50;;
68680;SDS011;55836;49.858;6.756;2023-11-21T05:40:54;4.47;;;3.87;;
68680;SDS011;55836;49.858;6.756;2023-11-21T05:43:20;4.90;;;3.87;;
68680;SDS011;55836;49.858;6.756;2023-11-21T05:45:46;9.43;;;4.20;;
68680;SDS011;55836;49.858;6.756;2023-11-21T05:48:12;6.43;;;4.40;;
68680;SDS011;55836;49.858;6.756;2023-11-21T05:50:38;6.00;;;3.77;;
68680;SDS011;55836;49.858;6.756;2023-11-21T05:53:04;5.60;;;3.87;;
68680;SDS011;55836;49.858;6.756;2023-11-21T05:55:30;5.50;;;4.37;;
68680;SDS011;55836;49.858;6.756;2023-11-21T05:57:56;5.30;;;3.77;;
68680;SDS011;55836;49.858;6.756;2023-11-21T06:00:22;8.33;;;4.87;;
68680;SDS011;55836;49.858;6.756;2023-11-21T06:02:51;6.73;;;6.03;;
68680;SDS011;55836;49.858;6.756;2023-11-21T06:05:21;5.97;;;4.50;;
68680;SDS011;55836;49.858;6.756;2023-11-21T06:07:48;4.90;;;3.70;;
68680;SDS011;55836;49.858;6.756;2023-11-21T06:10:14;7.40;;;3.60;;
68680;SDS011;55836;49.858;6.756;2023-11-21T06:12:42;6.03;;;3.77;;
68680;SDS011;55836;49.858;6.756;2023-11-21T06:15:09;5.77;;;3.80;;
68680;SDS011;55836;49.858;6.756;2023-11-21T06:17:38;8.63;;;3.87;;
68680;SDS011;55836;49.858;6.756;2023-11-21T06:20:08;5.57;;;3.17;;
68680;SDS011;55836;49.858;6.756;2023-11-21T06:22:44;6.03;;;3.60;;
68680;SDS011;55836;49.858;6.756;2023-11-21T06:25:10;6.40;;;3.33;;
68680;SDS011;55836;49.858;6.756;2023-11-21T06:27:38;6.60;;;3.60;;
68680;SDS011;55836;49.858;6.756;2023-11-21T06:30:05;5.97;;;3.30;;
68680;SDS011;55836;49.858;6.756;2023-11-21T06:32:38;7.13;;;3.43;;
68680;SDS011;55836;49.858;6.756;2023-11-21T06:35:05;7.63;;;3.33;;
68680;SDS011;55836;49.858;6.756;2023-11-21T06:37:32;5.23;;;3.77;;
68680;SDS011;55836;49.858;6.756;2023-11-21T06:40:01;8.93;;;4.00;;
68680;SDS011;55836;49.858;6.756;2023-11-21T06:42:29;6.13;;;3.87;;
68680;SDS011;55836;49.858;6.756;2023-11-21T06:44:55;5.57;;;3.67;;
68680;SDS011;55836;49.858;6.756;2023-11-21T06:47:22;6.73;;;4.23;;
68680;SDS011;55836;49.858;6.756;2023-11-21T06:49:52;7.30;;;4.27;;
68680;SDS011;55836;49.858;6.756;2023-11-21T06:52:19;5.17;;;3.20;;
68680;SDS011;55836;49.858;6.756;2023-11-21T06:54:45;9.07;;;4.07;;
68680;SDS011;55836;49.858;6.756;2023-11-21T06:57:12;6.97;;;4.03;;
68680;SDS011;55836;49.858;6.756;2023-11-21T06:59:38;5.80;;;3.30;;
68680;SDS011;55836;49.858;6.756;2023-11-21T07:02:04;7.23;;;4.63;;
68680;SDS011;55836;49.858;6.756;2023-11-21T07:04:31;13.03;;;7.60;;
68680;SDS011;55836;49.858;6.756;2023-11-21T07:06:57;13.93;;;5.20;;
68680;SDS011;55836;49.858;6.756;2023-11-21T07:09:23;11.90;;;3.97;;
68680;SDS011;55836;49.858;6.756;2023-11-21T07:11:50;8.83;;;4.60;;
68680;SDS011;55836;49.858;6.756;2023-11-21T07:14:17;6.67;;;4.40;;
68680;SDS011;55836;49.858;6.756;2023-11-21T07:16:44;7.07;;;4.70;;
68680;SDS011;55836;49.858;6.756;2023-11-21T07:19:10;5.77;;;4.03;;
68680;SDS011;55836;49.858;6.756;2023-11-21T07:21:37;8.03;;;4.53;;
68680;SDS011;55836;49.858;6.756;2023-11-21T07:24:03;7.97;;;4.40;;
68680;SDS011;55836;49.858;6.756;2023-11-21T07:26:31;8.33;;;4.50;;
68680;SDS011;55836;49.858;6.756;2023-11-21T07:28:57;8.40;;;4.50;;
68680;SDS011;55836;49.858;6.756;2023-11-21T07:31:23;9.47;;;4.77;;
68680;SDS011;55836;49.858;6.756;2023-11-21T07:33:52;11.30;;;5.70;;
68680;SDS011;55836;49.858;6.756;2023-11-21T07:36:19;6.07;;;4.83;;
68680;SDS011;55836;49.858;6.756;2023-11-21T07:38:48;8.50;;;4.73;;
68680;SDS011;55836;49.858;6.756;2023-11-21T07:41:14;8.33;;;5.53;;
68680;SDS011;55836;49.858;6.756;2023-11-21T07:43:44;12.27;;;6.00;;
68680;SDS011;55836;49.858;6.756;2023-11-21T07:46:10;9.83;;;5.53;;
68680;SDS011;55836;49.858;6.756;2023-11-21T07:48:37;9.00;;;6.10;;
68680;SDS011;55836;49.858;6.756;2023-11-21T07:51:03;9.30;;;6.07;;
68680;SDS011;55836;49.858;6.756;2023-11-21T07:53:29;9.53;;;6.00;;
68680;SDS011;55836;49.858;6.756;2023-11-21T07:56:02;13.47;;;8.33;;
68680;SDS011;55836;49.858;6.756;2023-11-21T07:58:28;12.43;;;7.43;;
68680;SDS011;55836;49.858;6.756;2023-11-21T08:00:54;10.43;;;7.03;;
68680;SDS011;55836;49.858;6.756;2023-11-21T08:03:20;11.30;;;6.37;;
68680;SDS011;55836;49.858;6.756;2023-11-21T08:05:46;9.40;;;6.00;;
68680;SDS011;55836;49.858;6.756;2023-11-21T08:08:12;13.20;;;6.90;;
68680;SDS011;55836;49.858;6.756;2023-11-21T08:10:38;10.00;;;6.40;;
68680;SDS011;55836;49.858;6.756;2023-11-21T08:13:05;11.60;;;6.13;;
68680;SDS011;55836;49.858;6.756;2023-11-21T08:15:34;14.57;;;10.17;;
68680;SDS011;55836;49.858;6.756;2023-11-21T08:18:02;13.43;;;8.73;;
68680;SDS011;55836;49.858;6.756;2023-11-21T08:20:28;12.60;;;7.23;;
68680;SDS011;55836;49.858;6.756;2023-11-21T08:22:54;13.50;;;7.33;;
68680;SDS011;55836;49.858;6.756;2023-11-21T08:25:21;13.10;;;7.73;;
68680;SDS011;55836;49.858;6.756;2023-11-21T08:27:47;13.10;;;7.73;;
68680;SDS011;55836;49.858;6.756;2023-11-21T08:30:14;13.63;;;9.27;;
68680;SDS011;55836;49.858;6.756;2023-11-21T08:32:41;13.03;;;8.60;;
68680;SDS011;55836;49.858;6.756;2023-11-21T08:35:08;12.63;;;7.67;;
68680;SDS011;55836;49.858;6.756;2023-11-21T08:37:34;16.53;;;7.97;;
68680;SDS011;55836;49.858;6.756;2023-11-21T08:40:04;15.80;;;8.37;;
68680;SDS011;55836;49.858;6.756;2023-11-21T08:42:34;11.83;;;7.60;;
68680;SDS011;55836;49.858;6.756;2023-11-21T08:45:00;18.17;;;9.10;;
68680;SDS011;55836;49.858;6.756;2023-11-21T08:47:29;11.47;;;8.07;;
68680;SDS011;55836;49.858;6.756;2023-11-21T08:49:58;13.83;;;8.40;;
68680;SDS011;55836;49.858;6.756;2023-11-21T08:52:24;12.33;;;7.60;;
68680;SDS011;55836;49.858;6.756;2023-11-21T08:54:50;11.97;;;7.20;;
68680;SDS011;55836;49.858;6.756;2023-11-21T08:57:24;17.03;;;9.07;;
68680;SDS011;55836;49.858;6.756;2023-11-21T08:59:50;12.10;;;8.33;;
68680;SDS011;55836;49.858;6.756;2023-11-21T09:02:25;12.70;;;8.67;;
68680;SDS011;55836;49.858;6.756;2023-11-21T09:04:51;20.37;;;10.17;;
68680;SDS011;55836;49.858;6.756;2023-11-21T09:07:21;17.37;;;8.73;;
68680;SDS011;55836;49.858;6.756;2023-11-21T09:09:47;16.37;;;11.07;;
68680;SDS011;55836;49.858;6.756;2023-11-21T09:12:14;15.57;;;10.67;;
68680;SDS011;55836;49.858;6.756;2023-11-21T09:14:40;13.33;;;9.13;;
68680;SDS011;55836;49.858;6.756;2023-11-21T09:17:06;14.23;;;8.60;;
68680;SDS011;55836;49.858;6.756;2023-11-21T09:19:39;15.17;;;9.03;;
68680;SDS011;55836;49.858;6.756;2023-11-21T09:22:05;13.23;;;9.33;;
68680;SDS011;55836;49.858;6.756;2023-11-21T09:24:31;15.77;;;10.33;;
68680;SDS011;55836;49.858;6.756;2023-11-21T09:26:58;18.00;;;10.50;;
68680;SDS011;55836;49.858;6.756;2023-11-21T09:29:25;15.17;;;9.90;;
68680;SDS011;55836;49.858;6.756;2023-11-21T09:31:51;14.60;;;10.10;;
68680;SDS011;55836;49.858;6.756;2023-11-21T09:34:17;14.37;;;9.07;;
68680;SDS011;55836;49.858;6.756;2023-11-21T09:36:46;14.23;;;8.87;;
68680;SDS011;55836;49.858;6.756;2023-11-21T09:39:12;10.30;;;8.23;;
68680;SDS011;55836;49.858;6.756;2023-11-21T09:41:49;13.67;;;9.33;;
68680;SDS011;55836;49.858;6.756;2023-11-21T09:44:20;14.03;;;8.50;;
68680;SDS011;55836;49.858;6.756;2023-11-21T09:46:48;14.87;;;8.50;;
68680;SDS011;55836;49.858;6.756;2023-11-21T09:49:14;16.20;;;8.93;;
68680;SDS011;55836;49.858;6.756;2023-11-21T09:51:42;12.13;;;8.97;;
68680;SDS011;55836;49.858;6.756;2023-11-21T09:54:09;11.00;;;8.60;;
68680;SDS011;55836;49.858;6.756;2023-11-21T09:56:39;13.03;;;8.87;;
68680;SDS011;55836;49.858;6.756;2023-11-21T09:59:05;12.40;;;8.87;;
68680;SDS011;55836;49.858;6.756;2023-11-21T10:01:36;13.17;;;8.80;;
68680;SDS011;55836;49.858;6.756;2023-11-21T10:04:05;15.17;;;8.70;;
68680;SDS011;55836;49.858;6.756;2023-11-21T10:06:36;9.37;;;7.60;;
68680;SDS011;55836;49.858;6.756;2023-11-21T10:09:03;14.33;;;8.90;;
68680;SDS011;55836;49.858;6.756;2023-11-21T10:11:36;12.80;;;8.10;;
68680;SDS011;55836;49.858;6.756;2023-11-21T10:14:03;13.87;;;7.60;;
68680;SDS011;55836;49.858;6.756;2023-11-21T10:16:29;10.93;;;8.03;;
68680;SDS011;55836;49.858;6.756;2023-11-21T10:18:57;12.20;;;7.57;;
68680;SDS011;55836;49.858;6.756;2023-11-21T10:21:24;13.00;;;7.73;;
68680;SDS011;55836;49.858;6.756;2023-11-21T10:23:51;13.23;;;7.87;;
68680;SDS011;55836;49.858;6.756;2023-11-21T10:26:18;12.97;;;8.07;;
68680;SDS011;55836;49.858;6.756;2023-11-21T10:28:55;8.43;;;7.10;;
68680;SDS011;55836;49.858;6.756;2023-11-21T10:31:22;10.50;;;8.20;;
68680;SDS011;55836;49.858;6.756;2023-11-21T10:33:49;13.87;;;7.80;;
68680;SDS011;55836;49.858;6.756;2023-11-21T10:36:24;11.83;;;7.93;;
68680;SDS011;55836;49.858;6.756;2023-11-21T10:38:51;10.97;;;7.93;;
68680;SDS011;55836;49.858;6.756;2023-11-21T10:41:18;11.67;;;8.20;;
68680;SDS011;55836;49.858;6.756;2023-11-21T10:43:44;13.90;;;8.33;;
68680;SDS011;55836;49.858;6.756;2023-11-21T10:46:10;13.57;;;9.73;;
68680;SDS011;55836;49.858;6.756;2023-11-21T10:48:36;10.60;;;7.83;;
68680;SDS011;55836;49.858;6.756;2023-11-21T10:51:06;13.03;;;7.57;;
68680;SDS011;55836;49.858;6.756;2023-11-21T10:53:32;10.77;;;7.30;;
68680;SDS011;55836;49.858;6.756;2023-11-21T10:56:02;9.90;;;7.63;;
68680;SDS011;55836;49.858;6.756;2023-11-21T10:58:32;26.70;;;8.97;;
68680;SDS011;55836;49.858;6.756;2023-11-21T11:00:58;17.67;;;8.57;;
68680;SDS011;55836;49.858;6.756;2023-11-21T11:03:25;10.47;;;7.20;;
68680;SDS011;55836;49.858;6.756;2023-11-21T11:05:51;9.97;;;7.10;;
68680;SDS011;55836;49.858;6.756;2023-11-21T11:08:20;11.40;;;7.07;;
68680;SDS011;55836;49.858;6.756;2023-11-21T11:10:51;11.07;;;7.23;;
68680;SDS011;55836;49.858;6.756;2023-11-21T11:13:17;8.90;;;7.00;;
68680;SDS011;55836;49.858;6.756;2023-11-21T11:15:46;10.77;;;7.00;;
68680;SDS011;55836;49.858;6.756;2023-11-21T11:18:12;9.77;;;6.87;;
68680;SDS011;55836;49.858;6.756;2023-11-21T11:20:39;9.27;;;6.60;;
68680;SDS011;55836;49.858;6.756;2023-11-21T11:28:19;9.30;;;7.60;;
68680;SDS011;55836;49.858;6.756;2023-11-21T11:33:23;10.57;;;7.93;;
68680;SDS011;55836;49.858;6.756;2023-11-21T11:38:20;8.17;;;6.43;;
68680;SDS011;55836;49.858;6.756;2023-11-21T11:40:47;7.93;;;6.93;;
68680;SDS011;55836;49.858;6.756;2023-11-21T11:43:24;9.93;;;6.97;;
68680;SDS011;55836;49.858;6.756;2023-11-21T11:45:50;9.47;;;6.60;;
68680;SDS011;55836;49.858;6.756;2023-11-21T11:48:18;10.30;;;7.30;;
68680;SDS011;55836;49.858;6.756;2023-11-21T11:53:33;8.37;;;6.43;;
68680;SDS011;55836;49.858;6.756;2023-11-21T11:58:40;8.57;;;6.10;;
68680;SDS011;55836;49.858;6.756;2023-11-21T12:01:06;10.37;;;6.13;;
68680;SDS011;55836;49.858;6.756;2023-11-21T12:03:32;8.47;;;5.77;;
68680;SDS011;55836;49.858;6.756;2023-11-21T12:05:58;9.17;;;5.87;;
68680;SDS011;55836;49.858;6.756;2023-11-21T12:08:26;9.40;;;5.40;;
68680;SDS011;55836;49.858;6.756;2023-11-21T12:10:57;6.40;;;4.83;;
68680;SDS011;55836;49.858;6.756;2023-11-21T12:13:23;7.17;;;5.17;;
68680;SDS011;55836;49.858;6.756;2023-11-21T12:15:49;7.80;;;5.00;;
68680;SDS011;55836;49.858;6.756;2023-11-21T12:18:15;8.77;;;5.80;;
68680;SDS011;55836;49.858;6.756;2023-11-21T12:20:41;13.83;;;6.10;;
68680;SDS011;55836;49.858;6.756;2023-11-21T12:23:11;8.60;;;5.00;;
68680;SDS011;55836;49.858;6.756;2023-11-21T12:25:40;8.17;;;4.80;;
68680;SDS011;55836;49.858;6.756;2023-11-21T12:28:07;5.23;;;4.30;;
68680;SDS011;55836;49.858;6.756;2023-11-21T12:30:36;9.13;;;5.73;;
68680;SDS011;55836;49.858;6.756;2023-11-21T12:33:03;7.40;;;5.43;;
68680;SDS011;55836;49.858;6.756;2023-11-21T12:35:32;10.17;;;6.07;;
68680;SDS011;55836;49.858;6.756;2023-11-21T12:38:02;8.73;;;6.00;;
68680;SDS011;55836;49.858;6.756;2023-11-21T12:40:28;10.43;;;6.53;;
68680;SDS011;55836;49.858;6.756;2023-11-21T12:42:58;9.53;;;6.60;;
68680;SDS011;55836;49.858;6.756;2023-11-21T12:45:26;8.87;;;5.63;;
68680;SDS011;55836;49.858;6.756;2023-11-21T12:50:25;7.97;;;5.10;;
68680;SDS011;55836;49.858;6.756;2023-11-21T12:53:00;6.63;;;4.63;;
68680;SDS011;55836;49.858;6.756;2023-11-21T12:55:30;4.67;;;4.13;;
68680;SDS011;55836;49.858;6.756;2023-11-21T12:57:57;6.47;;;4.83;;
68680;SDS011;55836;49.858;6.756;2023-11-21T13:00:33;7.37;;;5.13;;
68680;SDS011;55836;49.858;6.756;2023-11-21T13:03:02;5.60;;;5.07;;
68680;SDS011;55836;49.858;6.756;2023-11-21T13:05:38;8.63;;;5.53;;
68680;SDS011;55836;49.858;6.756;2023-11-21T13:08:05;7.40;;;6.07;;
68680;SDS011;55836;49.858;6.756;2023-11-21T13:10:33;9.00;;;5.00;;
68680;SDS011;55836;49.858;6.756;2023-11-21T13:13:01;6.67;;;4.40;;
68680;SDS011;55836;49.858;6.756;2023-11-21T13:15:30;6.37;;;5.07;;
68680;SDS011;55836;49.858;6.756;2023-11-21T13:17:57;6.53;;;4.70;;
68680;SDS011;55836;49.858;6.756;2023-11-21T13:20:24;7.73;;;4.90;;
68680;SDS011;55836;49.858;6.756;2023-11-21T13:22:51;6.97;;;3.90;;
68680;SDS011;55836;49.858;6.756;2023-11-21T13:25:29;4.10;;;3.70;;
68680;SDS011;55836;49.858;6.756;2023-11-21T13:27:57;6.90;;;3.97;;
68680;SDS011;55836;49.858;6.756;2023-11-21T13:30:23;3.30;;;2.80;;
68680;SDS011;55836;49.858;6.756;2023-11-21T13:32:58;4.40;;;3.70;;
68680;SDS011;55836;49.858;6.756;2023-11-21T13:35:27;3.13;;;2.50;;
68680;SDS011;55836;49.858;6.756;2023-11-21T13:38:03;4.57;;;2.90;;
68680;SDS011;55836;49.858;6.756;2023-11-21T13:40:30;3.97;;;2.80;;
68680;SDS011;55836;49.858;6.756;2023-11-21T13:42:56;4.03;;;3.00;;
68680;SDS011;55836;49.858;6.756;2023-11-21T13:45:25;5.53;;;3.00;;
68680;SDS011;55836;49.858;6.756;2023-11-21T13:47:52;6.77;;;3.50;;
68680;SDS011;55836;49.858;6.756;2023-11-21T13:50:25;5.77;;;3.50;;
68680;SDS011;55836;49.858;6.756;2023-11-21T13:53:01;6.07;;;3.50;;
68680;SDS011;55836;49.858;6.756;2023-11-21T13:55:46;3.97;;;3.00;;
68680;SDS011;55836;49.858;6.756;2023-11-21T13:58:14;5.53;;;3.60;;
68680;SDS011;55836;49.858;6.756;2023-11-21T14:00:47;4.67;;;2.93;;
68680;SDS011;55836;49.858;6.756;2023-11-21T14:03:21;6.03;;;3.30;;
68680;SDS011;55836;49.858;6.756;2023-11-21T14:05:47;3.67;;;3.00;;
68680;SDS011;55836;49.858;6.756;2023-11-21T14:08:17;3.97;;;3.53;;
68680;SDS011;55836;49.858;6.756;2023-11-21T14:10:45;6.70;;;3.60;;
68680;SDS011;55836;49.858;6.756;2023-11-21T14:13:16;5.17;;;3.03;;
68680;SDS011;55836;49.858;6.756;2023-11-21T14:15:42;3.60;;;3.00;;
68680;SDS011;55836;49.858;6.756;2023-11-21T14:18:11;5.33;;;3.10;;
68680;SDS011;55836;49.858;6.756;2023-11-21T14:20:39;4.93;;;3.10;;
68680;SDS011;55836;49.858;6.756;2023-11-21T14:23:06;4.53;;;3.10;;
68680;SDS011;55836;49.858;6.756;2023-11-21T14:25:33;6.13;;;3.13;;
68680;SDS011;55836;49.858;6.756;2023-11-21T14:28:01;5.57;;;3.60;;
68680;SDS011;55836;49.858;6.756;2023-11-21T14:30:28;6.53;;;4.60;;
68680;SDS011;55836;49.858;6.756;2023-11-21T14:32:56;5.93;;;4.20;;
68680;SDS011;55836;49.858;6.756;2023-11-21T14:35:22;7.43;;;5.43;;
68680;SDS011;55836;49.858;6.756;2023-11-21T14:37:48;8.27;;;5.80;;
68680;SDS011;55836;49.858;6.756;2023-11-21T14:40:15;8.53;;;6.17;;
68680;SDS011;55836;49.858;6.756;2023-11-21T14:42:41;14.83;;;11.23;;
68680;SDS011;55836;49.858;6.756;2023-11-21T14:45:08;6.20;;;5.60;;
68680;SDS011;55836;49.858;6.756;2023-11-21T14:47:37;8.47;;;4.47;;
68680;SDS011;55836;49.858;6.756;2023-11-21T14:50:08;8.27;;;5.00;;
68680;SDS011;55836;49.858;6.756;2023-11-21T14:52:57;7.53;;;4.37;;
68680;SDS011;55836;49.858;6.756;2023-11-21T14:55:24;5.13;;;4.23;;
68680;SDS011;55836;49.858;6.756;2023-11-21T14:57:57;6.97;;;5.07;;
68680;SDS011;55836;49.858;6.756;2023-11-21T15:00:27;22.57;;;15.80;;
68680;SDS011;55836;49.858;6.756;2023-11-21T15:02:58;8.83;;;5.80;;